Time;durP1;ratioP1;P1;durP2;ratioP2;P2;SDS_P1;SDS_P2;PMS_P1;PMS_P2;Temp;Humidity;BMP_temperature;BMP_pressure;BME280_temperature;BME280_humidity;BME280_pressure;Samples;Min_cycle;Max_cycle;Signal;HPM_P1;HPM_P2
2022/06/03 00:00:24;;;;;;;6.80;6.20;;;10.20;99.90;;;;;;4932037;28;20469;-69
2022/06/03 00:03:33;;;;;;;6.77;6.17;;;10.10;99.90;;;;;;4978513;28;20516;-69
2022/06/03 00:06:34;;;;;;;6.00;5.50;;;10.00;99.90;;;;;;4974983;28;20532;-68
2022/06/03 00:09:42;;;;;;;6.80;5.53;;;10.00;99.90;;;;;;4977728;28;20624;-69
2022/06/03 00:12:53;;;;;;;6.30;5.80;;;9.80;99.90;;;;;;4967020;28;20480;-68
2022/06/03 00:16:02;;;;;;;6.73;6.10;;;9.90;99.90;;;;;;4980336;28;20825;-68
2022/06/03 00:19:05;;;;;;;7.30;6.60;;;9.80;99.90;;;;;;4977881;28;20624;-68
2022/06/03 00:22:17;;;;;;;6.37;5.77;;;9.80;99.90;;;;;;4975371;28;20837;-68
2022/06/03 00:25:30;;;;;;;10.17;6.50;;;9.70;99.90;;;;;;4976532;28;21048;-68
2022/06/03 00:28:36;;;;;;;6.67;6.07;;;9.80;99.90;;;;;;4976457;28;20643;-69
2022/06/03 00:31:58;;;;;;;7.07;6.47;;;9.80;99.90;;;;;;4972858;28;20527;-68
2022/06/03 00:35:15;;;;;;;6.87;6.27;;;9.70;99.90;;;;;;4977633;28;20457;-68
2022/06/03 00:38:18;;;;;;;7.80;6.87;;;9.70;99.90;;;;;;4963721;28;20504;-68
2022/06/03 00:41:39;;;;;;;6.40;5.90;;;9.60;99.90;;;;;;4976131;28;20565;-68
2022/06/03 00:44:57;;;;;;;6.40;5.80;;;9.60;99.90;;;;;;4967801;28;20461;-68
2022/06/03 00:47:59;;;;;;;6.20;5.60;;;9.60;99.90;;;;;;4974230;28;20520;-68
2022/06/03 00:51:01;;;;;;;6.80;6.20;;;9.50;99.90;;;;;;4975630;28;20556;-68
2022/06/03 00:54:26;;;;;;;6.60;6.00;;;9.50;99.90;;;;;;4975676;28;20498;-68
2022/06/03 00:57:41;;;;;;;6.70;6.00;;;9.50;99.90;;;;;;4971578;28;20977;-69
2022/06/03 01:00:31;;;;;;;6.53;5.93;;;9.40;99.90;;;;;;4969971;28;20532;-68
2022/06/03 01:03:32;;;;;;;8.50;7.07;;;9.40;99.90;;;;;;4973294;28;20539;-68
2022/06/03 01:06:34;;;;;;;6.47;5.97;;;9.30;99.90;;;;;;4971165;28;20449;-68
2022/06/03 01:09:35;;;;;;;6.27;5.77;;;9.30;99.90;;;;;;4971746;28;20567;-68
2022/06/03 01:12:42;;;;;;;6.17;5.60;;;9.30;99.90;;;;;;4971965;28;20483;-68
2022/06/03 01:15:39;;;;;;;6.33;5.83;;;9.20;99.90;;;;;;4970319;28;20467;-68
2022/06/03 01:18:45;;;;;;;6.17;5.67;;;9.10;99.90;;;;;;4974329;28;20481;-68
2022/06/03 01:21:47;;;;;;;6.10;5.60;;;9.10;99.90;;;;;;4971201;28;20512;-67
2022/06/03 01:25:00;;;;;;;7.10;6.40;;;9.00;99.90;;;;;;4975932;28;21069;-67
2022/06/03 01:28:19;;;;;;;6.40;5.70;;;9.10;99.90;;;;;;4972562;28;20543;-67
2022/06/03 01:31:37;;;;;;;7.60;6.90;;;9.20;99.90;;;;;;4971020;28;20509;-67
2022/06/03 01:34:39;;;;;;;6.50;5.90;;;9.20;99.90;;;;;;4976471;28;20500;-67
2022/06/03 01:37:33;;;;;;;5.63;5.23;;;9.10;99.90;;;;;;4978545;28;20550;-67
2022/06/03 01:40:40;;;;;;;6.83;6.27;;;9.00;99.90;;;;;;4977443;28;20535;-67
2022/06/03 01:44:09;;;;;;;5.97;5.50;;;8.90;99.90;;;;;;4977086;28;20519;-68
2022/06/03 01:47:50;;;;;;;7.83;6.77;;;8.80;99.90;;;;;;4958439;28;20469;-67
2022/06/03 01:50:58;;;;;;;7.83;6.90;;;8.80;99.90;;;;;;4973162;28;20558;-68
2022/06/03 01:54:24;;;;;;;6.90;6.30;;;8.70;99.90;;;;;;4978235;28;21031;-67
2022/06/03 01:57:28;;;;;;;7.13;5.90;;;8.80;99.90;;;;;;4977880;28;20543;-67
2022/06/03 02:00:31;;;;;;;6.83;6.23;;;8.80;99.90;;;;;;4971633;28;20551;-67
2022/06/03 02:03:53;;;;;;;6.47;5.77;;;8.70;99.90;;;;;;4976800;28;20532;-67
2022/06/03 02:07:31;;;;;;;6.80;6.20;;;8.60;99.90;;;;;;4980537;28;20502;-67
2022/06/03 02:11:07;;;;;;;7.73;6.80;;;8.60;99.90;;;;;;4953383;28;21087;-67
2022/06/03 02:14:43;;;;;;;6.53;5.93;;;8.60;99.90;;;;;;4978415;28;20495;-67
2022/06/03 02:18:17;;;;;;;5.90;5.40;;;8.60;99.90;;;;;;4896830;28;20536;-67
2022/06/03 02:21:28;;;;;;;6.00;5.50;;;8.50;99.90;;;;;;4975614;28;20489;-68
2022/06/03 02:24:56;;;;;;;6.13;5.63;;;8.50;99.90;;;;;;4976858;28;24584;-67
2022/06/03 02:28:29;;;;;;;5.93;5.43;;;8.40;99.90;;;;;;4977989;28;20496;-68
2022/06/03 02:31:45;;;;;;;6.33;5.70;;;8.40;99.90;;;;;;4972387;28;20476;-67
2022/06/03 02:35:02;;;;;;;5.70;5.20;;;8.40;99.90;;;;;;4978466;28;20458;-68
2022/06/03 02:38:16;;;;;;;6.13;5.63;;;8.30;99.90;;;;;;4953952;28;20505;-67
2022/06/03 02:41:36;;;;;;;6.60;6.00;;;8.30;99.90;;;;;;4969375;28;20961;-68
2022/06/03 02:44:54;;;;;;;6.13;5.60;;;8.20;99.90;;;;;;4978592;28;20989;-68
2022/06/03 02:48:22;;;;;;;6.40;5.80;;;8.20;99.90;;;;;;4980474;28;21005;-67
2022/06/03 02:51:32;;;;;;;7.17;6.03;;;8.20;99.90;;;;;;4978231;28;20561;-67
2022/06/03 02:55:10;;;;;;;6.13;5.63;;;8.10;99.90;;;;;;4976798;28;20461;-67
2022/06/03 02:58:21;;;;;;;6.00;5.50;;;8.20;99.90;;;;;;4981294;28;20522;-67
2022/06/03 03:01:42;;;;;;;6.23;5.60;;;8.10;99.90;;;;;;4977388;28;20627;-67
2022/06/03 03:04:44;;;;;;;6.10;5.60;;;8.10;99.90;;;;;;4931602;28;20504;-66
2022/06/03 03:08:01;;;;;;;6.30;5.70;;;8.10;99.90;;;;;;4978659;28;20593;-67
2022/06/03 03:11:14;;;;;;;6.80;5.80;;;8.10;99.90;;;;;;4976978;28;20856;-67
2022/06/03 03:14:45;;;;;;;6.57;5.93;;;8.10;99.90;;;;;;4978124;28;20497;-67
2022/06/03 03:17:51;;;;;;;5.97;5.37;;;8.00;99.90;;;;;;4977295;28;20948;-67
2022/06/03 03:21:14;;;;;;;6.40;5.73;;;8.00;99.90;;;;;;4976770;28;20945;-67
2022/06/03 03:24:34;;;;;;;5.83;5.40;;;8.00;99.90;;;;;;4979811;28;20911;-67
2022/06/03 03:27:41;;;;;;;6.33;5.67;;;8.00;99.90;;;;;;4977167;28;20509;-67
2022/06/03 03:30:36;;;;;;;6.37;5.40;;;8.00;99.90;;;;;;4972652;28;20568;-67
2022/06/03 03:33:39;;;;;;;6.07;5.57;;;8.00;99.90;;;;;;4979063;28;20662;-67
2022/06/03 03:37:05;;;;;;;5.80;5.20;;;7.90;99.90;;;;;;4978977;28;20446;-67
2022/06/03 03:40:26;;;;;;;6.77;5.97;;;8.00;99.90;;;;;;4955379;28;20488;-67
2022/06/03 03:44:00;;;;;;;5.53;5.03;;;8.00;99.90;;;;;;4974828;28;20493;-67
2022/06/03 03:47:17;;;;;;;6.27;5.33;;;8.00;99.90;;;;;;4971752;28;20496;-68
2022/06/03 03:50:43;;;;;;;5.97;5.47;;;7.90;99.90;;;;;;4955088;28;20540;-67
2022/06/03 03:54:12;;;;;;;6.33;5.80;;;8.00;99.90;;;;;;4958169;28;20813;-67
2022/06/03 03:57:35;;;;;;;6.53;5.97;;;8.00;99.90;;;;;;4936024;28;20466;-67
2022/06/03 04:01:03;;;;;;;6.40;5.80;;;8.00;99.90;;;;;;4959582;28;21044;-68
2022/06/03 04:04:23;;;;;;;6.03;5.53;;;8.00;99.90;;;;;;4958489;28;20581;-67
2022/06/03 04:07:28;;;;;;;6.37;5.87;;;8.10;99.90;;;;;;4956511;28;20474;-67
2022/06/03 04:10:37;;;;;;;7.33;6.63;;;8.10;99.90;;;;;;4945826;28;20549;-67
2022/06/03 04:14:02;;;;;;;6.60;6.00;;;8.10;99.90;;;;;;4955016;28;20529;-67
2022/06/03 04:17:26;;;;;;;7.37;6.67;;;8.20;99.90;;;;;;4959442;28;20878;-67
2022/06/03 04:20:48;;;;;;;6.67;6.07;;;8.20;99.90;;;;;;4955941;28;21810;-67
2022/06/03 04:24:09;;;;;;;6.87;6.27;;;8.20;99.90;;;;;;4958735;28;21060;-67
2022/06/03 04:27:30;;;;;;;6.73;6.10;;;8.30;99.90;;;;;;4956316;28;20459;-68
2022/06/03 04:31:03;;;;;;;7.00;6.40;;;8.30;99.90;;;;;;4953051;28;20502;-67
2022/06/03 04:33:55;;;;;;;6.80;6.20;;;8.40;99.90;;;;;;4953477;28;20593;-67
2022/06/03 04:37:25;;;;;;;7.27;6.57;;;8.40;99.90;;;;;;4955367;28;20466;-68
2022/06/03 04:40:48;;;;;;;6.80;6.20;;;8.40;99.90;;;;;;4920706;28;20994;-67
2022/06/03 04:44:09;;;;;;;8.47;6.90;;;8.60;99.90;;;;;;4941910;28;21138;-67
2022/06/03 04:47:48;;;;;;;6.90;6.30;;;8.60;99.90;;;;;;4951732;28;20501;-67
2022/06/03 04:51:02;;;;;;;8.23;7.43;;;8.70;99.90;;;;;;4942624;28;21075;-67
2022/06/03 04:54:41;;;;;;;8.20;7.40;;;8.80;99.90;;;;;;4955816;28;20549;-68
2022/06/03 04:58:00;;;;;;;9.30;8.30;;;8.90;99.90;;;;;;4927355;28;21165;-67
2022/06/03 05:01:21;;;;;;;8.83;8.03;;;9.00;99.90;;;;;;4952182;28;20502;-67
2022/06/03 05:04:53;;;;;;;10.47;9.17;;;9.10;99.90;;;;;;4935759;28;20491;-68
2022/06/03 05:08:14;;;;;;;11.47;10.27;;;9.20;99.90;;;;;;4956782;28;21053;-70
2022/06/03 05:11:38;;;;;;;11.77;10.53;;;9.30;99.90;;;;;;4955492;28;20482;-69
2022/06/03 05:15:05;;;;;;;14.73;10.03;;;9.40;99.90;;;;;;4960459;28;20491;-70
2022/06/03 05:18:29;;;;;;;12.37;10.57;;;9.60;99.90;;;;;;4953775;28;20514;-67
2022/06/03 05:21:48;;;;;;;12.40;11.20;;;9.70;99.90;;;;;;4959663;28;20561;-70
2022/06/03 05:25:12;;;;;;;13.03;11.80;;;9.80;99.90;;;;;;4941831;28;21042;-72
2022/06/03 05:28:31;;;;;;;13.47;12.00;;;9.90;99.90;;;;;;4955389;28;20885;-70
2022/06/03 05:31:53;;;;;;;14.67;11.60;;;10.10;99.90;;;;;;4942319;28;20478;-70
2022/06/03 05:35:05;;;;;;;10.93;9.93;;;10.10;99.90;;;;;;4947286;28;20517;-70
2022/06/03 05:38:26;;;;;;;12.60;11.30;;;10.30;99.90;;;;;;4950979;28;20486;-70
2022/06/03 05:45:32;;;;;;;12.20;10.97;;;10.50;99.90;;;;;;4948493;28;21039;-70
2022/06/03 05:48:26;;;;;;;11.40;10.30;;;10.60;99.90;;;;;;4951595;28;20484;-70
2022/06/03 05:51:35;;;;;;;13.53;11.80;;;10.70;99.90;;;;;;4973908;28;20481;-70
2022/06/03 05:54:41;;;;;;;12.73;11.30;;;10.80;99.90;;;;;;4970856;28;20457;-70
2022/06/03 05:57:37;;;;;;;12.50;11.30;;;10.90;99.90;;;;;;4972417;28;20612;-70
2022/06/03 06:00:50;;;;;;;12.57;11.27;;;10.90;99.90;;;;;;4964637;28;21256;-70
2022/06/03 06:03:45;;;;;;;10.37;9.30;;;11.00;99.90;;;;;;4961495;28;20449;-70
2022/06/03 06:06:37;;;;;;;12.07;9.40;;;11.10;99.90;;;;;;4964298;28;20619;-70
2022/06/03 06:09:42;;;;;;;8.93;7.83;;;11.10;99.90;;;;;;4972130;28;20473;-70
2022/06/03 06:12:52;;;;;;;7.70;7.00;;;11.20;99.90;;;;;;4962191;28;20563;-70
2022/06/03 06:16:15;;;;;;;8.00;6.80;;;11.30;99.90;;;;;;4969118;28;21051;-70
2022/06/03 06:19:07;;;;;;;6.30;5.70;;;11.40;99.90;;;;;;4901570;29;20641;-70
2022/06/03 06:22:09;;;;;;;12.83;7.93;;;11.40;99.90;;;;;;4967855;28;20484;-69
2022/06/03 06:25:09;;;;;;;8.63;7.83;;;11.50;99.90;;;;;;4974542;28;20580;-69
2022/06/03 06:28:00;;;;;;;8.57;7.73;;;11.60;99.90;;;;;;4975678;28;20478;-70
2022/06/03 06:31:11;;;;;;;8.50;7.07;;;11.60;99.90;;;;;;4975886;28;20549;-69
2022/06/03 06:34:39;;;;;;;10.40;7.50;;;11.70;99.90;;;;;;4976958;28;20457;-69
2022/06/03 06:37:55;;;;;;;7.43;6.83;;;11.80;99.90;;;;;;4976055;28;20528;-69
2022/06/03 06:40:59;;;;;;;9.90;7.20;;;11.90;99.90;;;;;;4976113;28;20612;-69
2022/06/03 06:43:50;;;;;;;9.37;8.27;;;12.00;99.90;;;;;;4977103;28;20494;-69
2022/06/03 06:46:51;;;;;;;8.80;7.93;;;12.10;99.90;;;;;;4974488;28;20489;-69
2022/06/03 06:49:48;;;;;;;7.60;6.80;;;12.10;99.90;;;;;;4970530;28;20524;-69
2022/06/03 06:52:45;;;;;;;13.90;8.47;;;12.20;99.90;;;;;;4972017;28;21601;-69
2022/06/03 06:55:43;;;;;;;8.03;7.23;;;12.20;99.90;;;;;;4974526;28;20464;-69
2022/06/03 06:58:43;;;;;;;8.63;7.80;;;12.30;99.90;;;;;;4974956;28;20470;-69
2022/06/03 07:01:39;;;;;;;8.27;7.47;;;12.40;99.90;;;;;;4974461;28;20469;-69
2022/06/03 07:04:31;;;;;;;9.80;7.47;;;12.50;99.90;;;;;;4973842;28;21345;-69
2022/06/03 07:07:27;;;;;;;8.63;7.53;;;12.60;99.90;;;;;;4972637;28;20479;-69
2022/06/03 07:10:23;;;;;;;9.97;8.67;;;12.60;99.90;;;;;;4974538;28;20482;-69
2022/06/03 07:13:17;;;;;;;8.83;8.03;;;12.70;99.90;;;;;;4972449;28;20490;-69
2022/06/03 07:16:11;;;;;;;9.73;7.43;;;12.80;99.90;;;;;;4972421;28;20969;-67
2022/06/03 07:22:25;;;;;;;9.60;8.00;;;13.00;99.90;;;;;;4968286;28;20613;-69
2022/06/03 07:25:23;;;;;;;8.53;7.70;;;13.00;99.90;;;;;;4975453;28;20564;-69
2022/06/03 07:28:26;;;;;;;8.00;7.30;;;13.10;99.90;;;;;;4973595;28;20509;-70
2022/06/03 07:31:21;;;;;;;8.30;7.47;;;13.10;99.90;;;;;;4970245;28;20485;-69
2022/06/03 07:34:15;;;;;;;8.83;6.50;;;13.20;99.90;;;;;;4972967;28;20457;-69
2022/06/03 07:37:10;;;;;;;8.70;6.77;;;13.30;99.90;;;;;;4972422;28;20476;-70
2022/06/03 07:40:05;;;;;;;7.83;7.13;;;13.40;99.90;;;;;;4973670;28;20457;-69
2022/06/03 07:43:01;;;;;;;7.57;6.83;;;13.50;99.90;;;;;;4974083;28;20466;-69
2022/06/03 07:45:53;;;;;;;7.80;7.00;;;13.50;99.90;;;;;;4972956;28;20715;-69
2022/06/03 07:48:44;;;;;;;8.67;7.50;;;13.60;99.90;;;;;;4976692;28;20485;-69
2022/06/03 07:51:38;;;;;;;7.93;6.53;;;13.70;99.90;;;;;;4975415;28;20501;-70
2022/06/03 07:54:28;;;;;;;10.60;8.60;;;13.70;99.90;;;;;;4971335;28;21247;-70
2022/06/03 07:57:21;;;;;;;6.90;6.20;;;13.80;99.90;;;;;;4976150;28;20524;-69
2022/06/03 08:00:15;;;;;;;9.10;6.50;;;13.80;99.90;;;;;;4972324;28;20462;-70
2022/06/03 08:03:13;;;;;;;5.83;5.33;;;14.00;99.90;;;;;;4969286;28;20470;-70
2022/06/03 08:06:05;;;;;;;6.90;5.80;;;14.10;99.90;;;;;;4971541;28;20540;-69
2022/06/03 08:12:00;;;;;;;6.83;6.10;;;14.30;99.90;;;;;;4972612;28;20490;-69
2022/06/03 08:14:48;;;;;;;6.60;5.93;;;14.30;99.90;;;;;;4972351;28;20481;-69
2022/06/03 08:17:36;;;;;;;6.70;6.10;;;14.40;99.90;;;;;;4975094;28;20485;-69
2022/06/03 08:20:27;;;;;;;8.43;5.97;;;14.50;99.90;;;;;;4967784;28;20559;-70
2022/06/03 08:23:19;;;;;;;6.53;5.90;;;14.50;99.90;;;;;;4976477;28;20952;-69
2022/06/03 08:26:11;;;;;;;6.00;5.50;;;14.60;99.90;;;;;;4968231;28;20492;-70
2022/06/03 08:29:09;;;;;;;7.27;5.00;;;14.60;99.90;;;;;;4965387;28;20563;-70
2022/06/03 08:31:59;;;;;;;7.97;5.00;;;14.70;99.90;;;;;;4969995;28;20486;-69
2022/06/03 08:34:51;;;;;;;6.70;5.27;;;14.80;99.90;;;;;;4974834;28;20458;-69
2022/06/03 08:37:45;;;;;;;6.83;5.50;;;14.90;99.90;;;;;;4973081;28;20485;-69
2022/06/03 08:40:42;;;;;;;6.60;5.17;;;15.00;99.90;;;;;;4973222;28;21203;-69
2022/06/03 08:43:40;;;;;;;4.97;4.40;;;15.00;99.90;;;;;;4974099;28;20539;-70
2022/06/03 08:46:38;;;;;;;3.83;3.50;;;15.10;99.90;;;;;;4974506;28;20563;-69
2022/06/03 08:49:30;;;;;;;4.40;4.00;;;15.20;99.90;;;;;;4976510;28;20469;-70
2022/06/03 08:52:25;;;;;;;4.67;3.77;;;15.30;99.90;;;;;;4965552;28;20601;-70
2022/06/03 08:55:27;;;;;;;3.90;3.60;;;15.30;99.90;;;;;;4972658;28;20616;-70
2022/06/03 08:58:39;;;;;;;5.33;4.53;;;15.40;99.90;;;;;;4967602;28;20504;-69
2022/06/03 09:01:35;;;;;;;6.77;4.17;;;15.40;99.90;;;;;;4971188;28;20863;-69
2022/06/03 09:04:30;;;;;;;4.50;3.40;;;15.50;99.90;;;;;;4973662;28;20600;-70
2022/06/03 09:07:28;;;;;;;4.60;3.30;;;15.60;99.90;;;;;;4976990;28;20504;-69
2022/06/03 09:10:21;;;;;;;3.70;3.30;;;15.60;99.90;;;;;;4975750;28;20469;-69
2022/06/03 09:13:16;;;;;;;3.50;3.20;;;15.70;99.90;;;;;;4973270;28;20541;-69
2022/06/03 09:16:08;;;;;;;4.17;3.47;;;15.70;99.90;;;;;;4972399;28;20476;-69
2022/06/03 09:19:00;;;;;;;3.70;3.40;;;15.90;99.90;;;;;;4971813;28;20477;-69
2022/06/03 09:21:51;;;;;;;5.43;3.03;;;15.90;99.90;;;;;;4974163;28;20489;-69
2022/06/03 09:24:42;;;;;;;4.17;3.20;;;16.00;99.90;;;;;;4974435;28;20466;-69
2022/06/03 09:27:33;;;;;;;3.40;2.60;;;16.10;99.90;;;;;;4973256;28;21200;-69
2022/06/03 09:30:31;;;;;;;4.07;2.73;;;16.20;99.90;;;;;;4973647;28;20482;-69
2022/06/03 09:33:23;;;;;;;2.50;2.30;;;16.20;99.90;;;;;;4972949;28;20582;-69
2022/06/03 09:36:17;;;;;;;3.43;3.07;;;16.30;99.90;;;;;;4975626;28;20484;-69
2022/06/03 09:39:09;;;;;;;3.07;2.50;;;16.30;99.90;;;;;;4973299;28;20492;-69
2022/06/03 09:41:58;;;;;;;5.97;3.30;;;16.40;99.90;;;;;;4973246;28;20545;-69
2022/06/03 09:44:49;;;;;;;3.17;2.70;;;16.50;99.90;;;;;;4978061;28;20548;-69
2022/06/03 09:47:38;;;;;;;3.20;2.90;;;16.60;99.90;;;;;;4976761;28;20584;-69
2022/06/03 09:50:27;;;;;;;3.60;3.30;;;16.70;99.90;;;;;;4973706;28;20694;-69
2022/06/03 09:53:20;;;;;;;4.87;2.97;;;16.80;99.90;;;;;;4974196;28;20498;-69
2022/06/03 09:56:18;;;;;;;2.70;2.50;;;16.90;99.90;;;;;;4969508;28;20458;-69
2022/06/03 09:59:07;;;;;;;3.20;2.40;;;17.00;99.90;;;;;;4976542;28;20985;-69
2022/06/03 10:01:56;;;;;;;2.50;2.30;;;17.10;99.90;;;;;;4962214;28;20581;-69
2022/06/03 10:04:44;;;;;;;2.53;2.20;;;17.20;99.90;;;;;;4966349;28;20453;-69
2022/06/03 10:07:35;;;;;;;3.07;2.67;;;17.30;99.90;;;;;;4966933;28;20478;-69
2022/06/03 10:13:31;;;;;;;2.67;2.20;;;17.40;99.90;;;;;;4977928;28;20453;-70
2022/06/03 10:16:21;;;;;;;2.73;2.50;;;17.60;99.90;;;;;;4969922;28;20496;-69
2022/06/03 10:19:09;;;;;;;3.90;2.60;;;17.60;99.90;;;;;;4969580;28;20472;-69
2022/06/03 10:21:58;;;;;;;2.40;2.20;;;17.70;99.90;;;;;;4974283;28;23110;-69
2022/06/03 10:24:50;;;;;;;2.53;2.33;;;17.80;99.90;;;;;;4979362;28;20468;-69
2022/06/03 10:27:38;;;;;;;4.23;2.27;;;17.90;99.90;;;;;;4979412;28;20494;-69
2022/06/03 10:30:28;;;;;;;2.93;2.60;;;17.90;99.90;;;;;;4973556;28;22807;-70
2022/06/03 10:33:18;;;;;;;3.70;2.70;;;18.10;99.90;;;;;;4967858;28;20466;-69
2022/06/03 10:36:07;;;;;;;2.77;2.57;;;18.10;99.90;;;;;;4971716;28;21441;-69
2022/06/03 10:38:55;;;;;;;3.30;2.23;;;18.10;99.90;;;;;;4968707;28;20532;-69
2022/06/03 10:41:48;;;;;;;3.70;2.37;;;18.20;99.90;;;;;;4974767;28;20494;-69
2022/06/03 10:44:43;;;;;;;3.00;2.70;;;18.20;99.90;;;;;;4973661;28;20829;-69
2022/06/03 10:47:35;;;;;;;2.93;2.27;;;18.30;99.90;;;;;;4976056;28;20494;-69
2022/06/03 10:50:29;;;;;;;3.47;2.60;;;18.40;99.90;;;;;;4977584;28;20477;-69
2022/06/03 11:02:50;;;;;;;3.77;2.57;;;18.80;99.90;;;;;;4977469;28;20507;-70
2022/06/03 11:05:39;;;;;;;2.13;2.03;;;18.90;99.90;;;;;;4975003;28;20969;-69
2022/06/03 11:08:27;;;;;;;3.13;2.03;;;19.00;99.90;;;;;;4973062;28;20484;-70
2022/06/03 11:11:29;;;;;;;2.67;2.47;;;19.10;99.90;;;;;;4976361;28;21064;-69
2022/06/03 11:14:34;;;;;;;2.70;2.47;;;19.20;99.90;;;;;;4975875;28;20544;-69
2022/06/03 11:17:33;;;;;;;2.70;2.50;;;19.30;99.90;;;;;;4976340;28;20502;-69
2022/06/03 11:20:34;;;;;;;3.63;2.53;;;19.40;99.90;;;;;;4975194;28;20632;-70
2022/06/03 11:23:23;;;;;;;2.50;2.30;;;19.50;99.90;;;;;;4976602;28;20973;-69
2022/06/03 11:26:12;;;;;;;2.57;2.37;;;19.60;99.90;;;;;;4968772;28;20457;-69
2022/06/03 11:29:04;;;;;;;3.00;2.47;;;19.60;99.90;;;;;;4975145;28;20509;-70
2022/06/03 11:31:55;;;;;;;2.60;2.37;;;19.70;99.90;;;;;;4974791;28;21073;-70
2022/06/03 11:34:54;;;;;;;2.67;2.47;;;19.80;99.90;;;;;;4970975;28;20469;-69
2022/06/03 11:37:48;;;;;;;2.53;2.00;;;19.90;99.90;;;;;;4974950;28;20858;-69
2022/06/03 11:40:40;;;;;;;2.40;2.00;;;19.90;99.90;;;;;;4971802;28;20625;-69
2022/06/03 11:43:35;;;;;;;2.30;2.10;;;20.00;99.90;;;;;;4975121;28;20548;-69
2022/06/03 11:46:49;;;;;;;2.10;1.90;;;20.10;99.90;;;;;;4977830;28;20497;-69
2022/06/03 11:49:37;;;;;;;2.10;2.00;;;20.20;99.90;;;;;;4977017;28;20458;-69
2022/06/03 11:52:29;;;;;;;2.83;2.00;;;20.40;99.90;;;;;;4968507;28;20593;-69
2022/06/03 11:55:19;;;;;;;2.03;1.83;;;20.40;99.90;;;;;;4971015;28;20965;-69
2022/06/03 11:58:16;;;;;;;2.73;1.83;;;20.50;99.90;;;;;;4966418;28;20972;-68
2022/06/03 12:01:07;;;;;;;1.80;1.70;;;20.60;99.90;;;;;;4975487;28;20474;-69
2022/06/03 12:03:59;;;;;;;3.20;1.90;;;20.80;99.90;;;;;;4972601;28;20507;-70
2022/06/03 12:06:57;;;;;;;1.90;1.80;;;20.80;99.90;;;;;;4974532;28;20865;-69
2022/06/03 12:09:55;;;;;;;2.20;2.00;;;20.90;99.90;;;;;;4973118;28;20477;-70
2022/06/03 12:16:17;;;;;;;1.60;1.50;;;21.10;99.90;;;;;;4975224;28;20988;-70
2022/06/03 12:19:06;;;;;;;2.97;1.60;;;21.30;99.90;;;;;;4969357;28;21193;-70
2022/06/03 12:21:58;;;;;;;2.00;1.80;;;21.50;99.90;;;;;;4970974;28;21115;-69
2022/06/03 12:24:52;;;;;;;2.27;1.70;;;21.50;99.90;;;;;;4973496;28;20492;-69
2022/06/03 12:27:41;;;;;;;1.53;1.43;;;21.70;99.90;;;;;;4975051;28;20576;-71
2022/06/03 12:30:42;;;;;;;2.80;1.93;;;21.80;99.90;;;;;;4977014;28;20493;-70
2022/06/03 12:33:35;;;;;;;2.43;1.60;;;21.90;99.90;;;;;;4971803;28;20484;-71
2022/06/03 12:36:37;;;;;;;1.53;1.43;;;22.00;99.90;;;;;;4972945;28;20461;-70
2022/06/03 12:39:29;;;;;;;1.90;1.80;;;22.10;99.90;;;;;;4974172;28;20492;-70
2022/06/03 12:42:38;;;;;;;1.50;1.40;;;22.20;99.90;;;;;;4975478;28;20486;-70
2022/06/03 12:45:30;;;;;;;1.70;1.53;;;22.30;99.90;;;;;;4973629;28;20457;-70
2022/06/03 12:48:47;;;;;;;2.47;1.60;;;22.40;99.90;;;;;;4972570;28;20492;-70
2022/06/03 12:51:57;;;;;;;1.80;1.70;;;22.50;99.90;;;;;;4963663;28;20736;-71
2022/06/03 12:54:49;;;;;;;2.10;2.00;;;22.70;99.90;;;;;;4973396;28;21053;-70
2022/06/03 12:57:47;;;;;;;1.77;1.50;;;22.80;99.90;;;;;;4972636;28;20469;-70
2022/06/03 13:00:37;;;;;;;1.70;1.60;;;22.80;99.90;;;;;;4964768;28;20477;-70
2022/06/03 13:03:42;;;;;;;2.70;1.50;;;22.90;99.90;;;;;;4971556;28;20545;-70
2022/06/03 13:06:31;;;;;;;1.90;1.80;;;23.00;99.90;;;;;;4970754;28;20457;-70
2022/06/03 13:09:48;;;;;;;1.73;1.63;;;23.20;99.90;;;;;;4972802;28;20624;-70
2022/06/03 13:12:50;;;;;;;1.87;1.70;;;23.20;99.90;;;;;;4971850;28;20647;-70
2022/06/03 13:15:47;;;;;;;2.50;1.73;;;23.40;99.90;;;;;;4974013;28;20525;-70
2022/06/03 13:18:39;;;;;;;1.97;1.77;;;23.50;99.90;;;;;;4972533;28;20560;-70
2022/06/03 13:21:29;;;;;;;1.17;1.17;;;23.50;99.90;;;;;;4970783;28;20477;-70
2022/06/03 13:24:23;;;;;;;1.50;1.40;;;23.60;99.90;;;;;;4973509;28;20993;-71
2022/06/03 13:27:28;;;;;;;1.60;1.50;;;23.80;99.90;;;;;;4967442;28;20478;-70
2022/06/03 13:30:17;;;;;;;1.97;1.87;;;23.90;99.90;;;;;;4970927;28;20543;-71
2022/06/03 13:33:19;;;;;;;3.13;1.57;;;24.00;99.90;;;;;;4973941;28;20470;-71
2022/06/03 13:36:11;;;;;;;2.40;2.20;;;24.20;99.90;;;;;;4974879;28;20468;-70
2022/06/03 13:39:00;;;;;;;2.03;1.77;;;24.20;99.90;;;;;;4979542;28;20798;-71
2022/06/03 13:45:21;;;;;;;2.70;2.00;;;24.40;99.90;;;;;;4971428;28;20504;-71
2022/06/03 13:48:15;;;;;;;2.30;1.73;;;24.50;99.70;;;;;;4975408;28;20493;-71
2022/06/03 13:51:28;;;;;;;1.70;1.60;;;24.70;99.30;;;;;;4975174;28;20529;-71
2022/06/03 13:54:21;;;;;;;1.70;1.60;;;24.80;98.30;;;;;;4970756;28;21026;-71
2022/06/03 13:57:18;;;;;;;1.70;1.60;;;24.80;97.60;;;;;;4972446;28;20532;-71
2022/06/03 14:00:22;;;;;;;1.90;1.80;;;24.90;98.90;;;;;;4968378;28;20905;-71
2022/06/03 14:03:15;;;;;;;1.77;1.67;;;25.00;99.90;;;;;;4977902;28;20448;-71
2022/06/03 14:06:08;;;;;;;3.03;2.20;;;25.10;98.90;;;;;;4974561;28;20465;-71
2022/06/03 14:09:00;;;;;;;1.60;1.50;;;25.20;99.90;;;;;;4979049;28;20508;-71
2022/06/03 14:11:55;;;;;;;1.90;1.80;;;25.20;99.40;;;;;;4977102;28;20503;-71
2022/06/03 14:14:49;;;;;;;1.80;1.70;;;25.30;99.90;;;;;;4978113;28;20563;-71
2022/06/03 14:17:54;;;;;;;3.20;1.80;;;25.30;99.90;;;;;;4971616;28;20977;-71
2022/06/03 14:20:49;;;;;;;2.40;1.93;;;25.50;99.90;;;;;;4976929;28;20485;-71
2022/06/03 14:23:41;;;;;;;1.80;1.70;;;25.60;99.90;;;;;;4978544;28;20500;-71
2022/06/03 14:26:37;;;;;;;1.60;1.50;;;25.70;98.70;;;;;;4978039;28;21575;-73
2022/06/03 14:29:31;;;;;;;2.00;1.90;;;25.80;96.60;;;;;;4976113;28;20528;-71
2022/06/03 14:32:22;;;;;;;1.70;1.60;;;25.90;95.80;;;;;;4966641;28;20477;-71
2022/06/03 14:35:19;;;;;;;2.00;1.80;;;25.90;95.40;;;;;;4964449;28;20453;-71
2022/06/03 14:38:15;;;;;;;1.87;1.77;;;25.90;94.60;;;;;;4970273;28;20552;-71
2022/06/03 14:41:07;;;;;;;2.17;1.83;;;26.00;96.10;;;;;;4971875;28;20734;-71
2022/06/03 14:43:57;;;;;;;1.60;1.50;;;25.90;94.20;;;;;;4977638;28;20462;-71
2022/06/03 14:46:54;;;;;;;2.00;1.90;;;25.90;93.60;;;;;;4981669;28;20457;-71
2022/06/03 14:49:47;;;;;;;2.10;1.60;;;26.00;96.30;;;;;;4977349;28;20911;-71
2022/06/03 14:52:40;;;;;;;1.70;1.60;;;26.10;94.90;;;;;;4976230;28;20558;-72
2022/06/03 14:55:32;;;;;;;1.53;1.43;;;26.10;95.10;;;;;;4974506;28;20477;-72
2022/06/03 14:58:26;;;;;;;2.27;1.83;;;26.30;96.60;;;;;;4975706;28;20904;-71
2022/06/03 15:01:30;;;;;;;1.80;1.70;;;26.40;95.50;;;;;;4974232;28;20497;-72
2022/06/03 15:04:27;;;;;;;1.80;1.70;;;26.40;95.20;;;;;;4974455;28;20469;-71
2022/06/03 15:07:21;;;;;;;1.90;1.60;;;26.40;93.10;;;;;;4975857;28;20486;-71
2022/06/03 15:10:17;;;;;;;1.70;1.60;;;26.30;93.30;;;;;;4979309;28;20544;-71
2022/06/03 15:13:06;;;;;;;2.30;2.10;;;26.40;93.80;;;;;;4979601;28;20497;-72
2022/06/03 15:15:54;;;;;;;4.57;2.10;;;26.40;94.30;;;;;;4979550;28;21028;-72
2022/06/03 15:18:44;;;;;;;2.53;1.77;;;26.40;92.60;;;;;;4981475;28;20491;-72
2022/06/03 15:21:36;;;;;;;1.60;1.50;;;26.40;92.00;;;;;;4978970;28;20556;-71
2022/06/03 15:24:25;;;;;;;1.53;1.43;;;26.30;92.10;;;;;;4979120;28;20464;-72
2022/06/03 15:27:15;;;;;;;1.60;1.50;;;26.30;92.70;;;;;;4969784;28;20478;-72
2022/06/03 15:30:08;;;;;;;1.73;1.63;;;26.40;92.90;;;;;;4972728;28;20892;-72
2022/06/03 15:32:57;;;;;;;1.57;1.47;;;26.40;93.80;;;;;;4975725;28;20508;-72
2022/06/03 15:35:46;;;;;;;1.80;1.70;;;26.50;93.40;;;;;;4974557;28;20561;-72
2022/06/03 15:38:36;;;;;;;1.53;1.43;;;26.40;92.50;;;;;;4970315;28;20542;-72
2022/06/03 15:41:27;;;;;;;1.47;1.37;;;26.40;92.10;;;;;;4976317;28;20481;-72
2022/06/03 15:44:31;;;;;;;1.90;1.80;;;26.40;91.80;;;;;;4973254;28;20471;-72
2022/06/03 15:47:23;;;;;;;1.33;1.33;;;26.50;92.70;;;;;;4972618;28;20624;-72
2022/06/03 15:50:13;;;;;;;2.00;1.90;;;26.40;92.10;;;;;;4974466;28;20540;-72
2022/06/03 15:53:22;;;;;;;1.93;1.67;;;26.40;91.00;;;;;;4975429;28;20460;-72
2022/06/03 15:56:23;;;;;;;1.77;1.50;;;26.40;91.30;;;;;;4975291;28;20465;-72
2022/06/03 15:59:19;;;;;;;1.40;1.30;;;26.40;91.90;;;;;;4974443;28;20821;-72
2022/06/03 16:02:17;;;;;;;1.67;1.57;;;26.40;91.50;;;;;;4972868;28;20505;-72
2022/06/03 16:05:12;;;;;;;1.77;1.53;;;26.40;91.30;;;;;;4976822;28;20473;-72
2022/06/03 16:08:20;;;;;;;1.70;1.60;;;26.20;91.40;;;;;;4976080;28;20516;-72
2022/06/03 16:11:23;;;;;;;1.70;1.60;;;26.10;91.80;;;;;;4973944;28;21060;-72
2022/06/03 16:14:21;;;;;;;1.73;1.50;;;26.10;91.80;;;;;;4976195;28;20449;-72
2022/06/03 16:17:27;;;;;;;1.60;1.47;;;26.00;92.30;;;;;;4971716;28;20619;-72
2022/06/03 16:20:17;;;;;;;2.30;1.80;;;25.90;92.30;;;;;;4972381;28;20566;-72